Weather observations for the past three days for
Lincoln, Lincoln Municipal Airport
Imperial (Metric)
Date Time (cdt) Wind (mph) Vis. (mi.) Weather Sky Cond. Temperature (ºF) Relative Humidity Wind Chill (°F) Heat Index (°F) Pressure Precipitation (in)
Air Dwpt 6 hour altimeter (in) sea level (mb) 1 hr 3 hr 6 hr
Max. Min.
08 07:54 E 3 10.00 Mostly Cloudy BKN100 55.9 35.1 46% 29.82 1009.3
08 06:54 N 5 10.00 Mostly Cloudy BKN110 53.1 34 59 52 48% 29.82 1009.1
08 05:54 N 9 10.00 Overcast OVC100 53.1 33.1 47% 29.8 1008.6
08 04:54 N 10 10.00 Overcast OVC100 54 34 47% 29.8 1008.6
08 03:54 NE 5 10.00 Overcast OVC110 53.1 37.9 57% 29.79 1008.4
08 02:54 NE 8 10.00 Overcast OVC110 54 36 51% 29.83 1009.5
08 01:54 Calm 10.00 Overcast OVC110 55 36 49% 29.83 1009.5
08 00:54 Calm 10.00 Fair CLR 57 33.1 73.9 55 41% 29.82 1009.3
07 23:54 Calm 10.00 Fair CLR 57 30 36% 29.83 1009.6
07 22:54 Calm 10.00 Partly Cloudy SCT120 59 28 31% 29.83 1009.6
07 21:54 N 3 10.00 Fair CLR 61 27 27% 29.82 1009.4
07 20:54 NE 5 10.00 Fair CLR 60.1 30 32% 29.81 1009.2
07 19:54 N 8 10.00 Fair CLR 71.1 26.1 19% 29.79 1008.4
07 18:54 NW 9 10.00 Fair CLR 73.9 26.1 75 70 17% 29.78 1008.0
07 17:54 NW 13 10.00 Fair CLR 73.9 27 17% 29.78 1008.2
07 16:54 NW 10 G 21 10.00 Fair CLR 75 27 17% 76 29.79 1008.4
07 15:54 W 13 G 22 10.00 Fair CLR 73.9 26.1 17% 29.8 1008.7
07 14:54 NW 13 G 25 10.00 Fair CLR 73.9 28.9 19% 29.81 1009.1
07 13:54 W 13 10.00 Fair CLR 72 32 23% 29.81 1009.1
07 12:54 W 16 10.00 Fair CLR 71.1 36 71.1 46 28% 29.82 1009.4
07 11:54 SW 22 G 30 10.00 Fair and Breezy CLR 69.1 34 27% 29.85 1010.3
07 10:54 SW 17 G 24 10.00 Fair CLR 64.9 35.1 33% 29.86 1010.6
07 09:54 SW 16 G 24 10.00 Fair CLR 60.1 37 42% 29.88 1011.8
07 08:54 SW 14 10.00 Fair CLR 54 37.9 55% 29.91 1012.7
07 07:54 SW 13 10.00 Fair CLR 48.9 39 69% 44 29.92 1013.3
07 06:54 SW 9 10.00 Fair CLR 46 37.9 50 45 73% 42 29.93 1013.4
07 05:54 SW 10 10.00 Fair CLR 45 39 80% 40 29.93 1013.6
07 04:54 SW 12 10.00 Fair CLR 46 37.9 73% 41 29.94 1013.6
07 03:54 SW 12 10.00 Fair CLR 46.9 37.9 71% 42 29.95 1014.0
07 02:54 SW 12 10.00 Fair CLR 48 37.9 68% 44 29.97 1014.8
07 01:54 SW 12 10.00 Fair CLR 48.9 37 64% 45 29.99 1015.4
07 00:54 SW 10 10.00 Fair CLR 50 33.1 61 48.9 52% 46 30 1015.9
06 23:54 SW 9 10.00 Fair CLR 51.1 30.9 46% 30 1016.0
06 22:54 SW 8 10.00 Partly Cloudy SCT100 52 26.1 37% 30.01 1016.3
06 21:54 Calm 10.00 Partly Cloudy SCT100 50 27 41% 30.02 1016.7
06 20:54 Calm 10.00 A Few Clouds FEW100 57 23 27% 30.01 1016.1
06 19:54 W 6 10.00 Fair CLR 59 21.9 24% 30 1016.1
06 18:54 NW 13 10.00 A Few Clouds FEW095 60.1 21.9 63 57 23% 30.01 1016.5
06 17:54 W 14 10.00 Mostly Cloudy BKN095 61 21 21% 30.02 1016.8
06 16:54 W 9 10.00 Mostly Cloudy BKN095 63 21.9 21% 30.03 1017.0
06 15:54 W 13 G 20 10.00 Mostly Cloudy BKN090 62.1 21 21% 30.05 1017.8
06 14:54 NW 12 G 23 10.00 Overcast OVC090 59 21 23% 30.08 1018.5
06 13:54 Vrbl 6 G 20 10.00 Mostly Cloudy BKN090 60.1 23 24% 30.09 1018.9
06 12:54 Vrbl 7 10.00 Mostly Cloudy BKN085 57 19.9 57.9 39 24% 30.1 1019.5
06 11:54 NW 6 10.00 Partly Cloudy SCT075 SCT095 55.9 21.9 27% 30.13 1020.2
06 10:54 NW 8 10.00 A Few Clouds FEW095 54 21 28% 30.13 1020.3
06 09:54 Calm 10.00 Fair CLR 50 24.1 36% 30.13 1020.3
06 08:54 Calm 10.00 Fair CLR 48 24.1 39% 30.12 1020.2
06 07:54 N 6 10.00 Fair CLR 44.1 28 53% 41 30.11 1019.8
06 06:54 N 5 10.00 Mostly Cloudy BKN090 39.9 28 46.9 37 63% 37 30.08 1018.9
06 05:54 N 6 10.00 Partly Cloudy SCT085 37.9 26.1 62% 34 30.06 1018.4
06 04:54 NW 3 10.00 Overcast OVC085 44.1 25 47% 30.06 1018.1
06 03:54 N 6 10.00 Partly Cloudy SCT085 42.1 25 51% 39 30.04 1017.5
06 02:54 N 6 10.00 Fair CLR 45 26.1 48% 42 30.03 1016.9
06 01:54 N 7 10.00 Fair CLR 45 26.1 48% 42 30.02 1016.8
06 00:54 N 6 10.00 Fair CLR 46.9 26.1 55.9 46.9 44% 45 30.02 1016.6
05 23:54 N 6 10.00 Mostly Cloudy BKN120 48 25 41% 46 30.01 1016.2
05 22:54 N 6 10.00 Partly Cloudy SCT120 48.9 26.1 41% 47 30 1015.8
05 21:54 N 7 10.00 Mostly Cloudy BKN120 51.1 25 36% 29.98 1015.2
05 20:54 N 9 10.00 A Few Clouds FEW120 51.1 25 36% 29.95 1014.1
05 19:54 N 14 10.00 Mostly Cloudy BKN120 54 23 30% 29.93 1013.5
05 18:54 N 16 10.00 Mostly Cloudy FEW080 BKN120 55.9 24.1 61 55.9 29% 29.91 1012.9
05 17:54 N 14 10.00 Overcast FEW080 OVC120 57 26.1 30% 29.9 1012.4
05 16:54 NW 7 10.00 Partly Cloudy FEW080 SCT120 57 26.1 30% 29.91 1012.8
05 15:54 NW 13 10.00 Partly Cloudy FEW070 SCT120 57.9 27 31% 29.92 1013.1
05 14:54 NW 10 10.00 Fair CLR 59 28.9 32% 29.93 1013.5
05 13:54 NW 13 G 20 10.00 Fair CLR 57.9 30 35% 29.94 1013.7
05 12:54 N 10 8.00 Partly Cloudy SCT080 57 30 57 48 36% 29.96 1014.3
05 11:54 N 10 G 18 10.00 Overcast FEW070 OVC110 55 28 36% 29.97 1014.7
05 10:54 N 6 10.00 Overcast FEW090 OVC110 53.1 30.9 43% 29.95 1014.2
05 09:54 N 7 10.00 Overcast OVC110 51.1 30.9 46% 29.95 1014.1
05 08:54 N 7 10.00 Overcast OVC110 50 33.1 52% 48 29.93 1013.5
Date Time (cdt) Wind (mph) Vis. (mi.) Weather Sky Cond. Air Dwpt Max. Min. Relative Humidity Wind Chill (°F) Heat Index (°F) altimeter (in) sea level (mb) 1 hr 3 hr 6 hr
6 hour
Temperature (ºF) Pressure Precipitation (in)